createdAt,value
2018-06-27T00:00:41.336Z,9.83
2018-06-27T00:03:19.074Z,8.97
2018-06-27T00:05:56.458Z,9.20
2018-06-27T00:08:31.961Z,10.13
2018-06-27T00:11:07.802Z,8.67
2018-06-27T00:13:43.295Z,7.20
2018-06-27T00:16:19.241Z,7.63
2018-06-27T00:18:56.341Z,7.67
2018-06-27T00:21:32.737Z,7.13
2018-06-27T00:24:08.413Z,8.07
2018-06-27T00:26:44.165Z,8.63
2018-06-27T00:29:20.156Z,7.13
2018-06-27T00:31:57.273Z,6.70
2018-06-27T00:34:33.933Z,7.87
2018-06-27T00:37:10.395Z,11.50
2018-06-27T00:39:46.592Z,7.57
2018-06-27T00:42:23.125Z,8.97
2018-06-27T00:44:58.708Z,7.87
2018-06-27T00:47:35.155Z,7.07
2018-06-27T00:50:11.673Z,6.57
2018-06-27T00:52:47.582Z,6.90
2018-06-27T00:55:24.627Z,6.37
2018-06-27T00:58:01.175Z,6.73
2018-06-27T01:00:37.002Z,7.20
2018-06-27T01:03:13.514Z,6.83
2018-06-27T01:05:49.165Z,9.50
2018-06-27T01:08:25.358Z,7.50
2018-06-27T01:11:02.055Z,12.10
2018-06-27T01:13:38.827Z,8.17
2018-06-27T01:16:14.896Z,7.87
2018-06-27T01:18:51.516Z,7.93
2018-06-27T01:21:27.640Z,7.37
2018-06-27T01:24:03.636Z,7.00
2018-06-27T01:26:39.476Z,7.90
2018-06-27T01:29:17.526Z,8.03
2018-06-27T01:31:53.068Z,8.33
2018-06-27T01:34:28.804Z,7.67
2018-06-27T01:37:04.402Z,7.93
2018-06-27T01:39:39.756Z,7.77
2018-06-27T01:42:15.232Z,9.43
2018-06-27T01:44:50.752Z,8.47
2018-06-27T01:47:26.341Z,8.93
2018-06-27T01:50:01.822Z,9.13
2018-06-27T01:52:37.224Z,7.93
2018-06-27T01:55:12.884Z,8.00
2018-06-27T01:57:48.508Z,7.97
2018-06-27T02:00:24.084Z,7.83
2018-06-27T02:02:59.334Z,9.10
2018-06-27T02:05:34.674Z,8.47
2018-06-27T02:08:10.118Z,7.97
2018-06-27T02:10:45.500Z,8.07
2018-06-27T02:13:20.868Z,8.17
2018-06-27T02:15:56.313Z,7.53
2018-06-27T02:18:31.744Z,7.80
2018-06-27T02:21:07.436Z,7.83
2018-06-27T02:23:42.852Z,7.33
2018-06-27T02:26:18.481Z,7.53
2018-06-27T02:28:54.022Z,6.80
2018-06-27T02:31:29.440Z,7.20
2018-06-27T02:34:04.918Z,7.00
2018-06-27T02:36:40.464Z,7.40
2018-06-27T02:39:16.258Z,8.03
2018-06-27T02:41:51.685Z,7.07
2018-06-27T02:44:26.985Z,7.47
2018-06-27T02:47:02.671Z,6.50
2018-06-27T02:49:38.204Z,5.97
2018-06-27T02:52:14.020Z,6.13
2018-06-27T02:54:49.289Z,6.30
2018-06-27T02:57:24.722Z,6.27
2018-06-27T03:00:00.305Z,6.13
2018-06-27T03:02:38.934Z,6.57
2018-06-27T03:05:14.233Z,6.70
2018-06-27T03:07:49.400Z,6.37
2018-06-27T03:10:24.927Z,6.50
2018-06-27T03:13:00.261Z,6.40
2018-06-27T03:15:35.978Z,6.93
2018-06-27T03:18:11.644Z,5.90
2018-06-27T03:20:47.298Z,6.97
2018-06-27T03:23:22.617Z,6.90
2018-06-27T03:25:59.137Z,5.80
2018-06-27T03:28:35.190Z,6.67
2018-06-27T03:31:10.551Z,6.67
2018-06-27T03:33:45.878Z,6.40
2018-06-27T03:36:21.310Z,6.40
2018-06-27T03:38:56.821Z,6.07
2018-06-27T03:41:32.224Z,6.47
2018-06-27T03:44:07.807Z,6.30
2018-06-27T03:46:43.177Z,6.27
2018-06-27T03:49:18.665Z,6.53
2018-06-27T03:51:54.287Z,7.33
2018-06-27T03:54:29.545Z,6.17
2018-06-27T03:57:05.138Z,6.40
2018-06-27T03:59:40.918Z,6.53
2018-06-27T04:02:16.389Z,6.30
2018-06-27T04:04:51.751Z,5.30
2018-06-27T04:07:27.248Z,5.70
2018-06-27T04:10:03.069Z,5.70
2018-06-27T04:12:38.397Z,5.47
2018-06-27T04:15:13.937Z,5.67
2018-06-27T04:17:49.352Z,5.60
2018-06-27T04:20:24.965Z,6.00
2018-06-27T04:23:00.513Z,5.50
2018-06-27T04:25:36.020Z,5.67
2018-06-27T04:28:11.175Z,5.90
2018-06-27T04:30:46.697Z,5.57
2018-06-27T04:33:21.945Z,6.10
2018-06-27T04:35:57.429Z,6.27
2018-06-27T04:38:33.027Z,7.07
2018-06-27T04:41:08.649Z,6.50
2018-06-27T04:43:44.131Z,7.23
2018-06-27T04:46:19.623Z,6.43
2018-06-27T04:48:55.149Z,6.63
2018-06-27T04:51:30.579Z,7.30
2018-06-27T04:54:07.175Z,6.60
2018-06-27T04:56:42.578Z,5.80
2018-06-27T04:59:18.217Z,6.03
2018-06-27T05:01:55.301Z,6.23
2018-06-27T05:04:31.056Z,5.87
2018-06-27T05:07:06.539Z,6.27
2018-06-27T05:09:42.090Z,7.20
2018-06-27T05:12:17.525Z,5.70
2018-06-27T05:14:53.128Z,6.10
2018-06-27T05:17:28.376Z,4.87
2018-06-27T05:20:03.926Z,5.30
2018-06-27T05:22:39.860Z,3.93
2018-06-27T05:25:15.428Z,4.17
2018-06-27T05:27:51.068Z,4.83
2018-06-27T05:30:26.385Z,3.27
2018-06-27T05:33:02.343Z,4.00
2018-06-27T05:35:38.137Z,3.97
2018-06-27T05:38:13.481Z,3.87
2018-06-27T05:40:48.992Z,4.23
2018-06-27T05:43:24.320Z,3.60
2018-06-27T05:46:00.031Z,4.10
2018-06-27T05:48:35.500Z,4.10
2018-06-27T05:51:10.821Z,3.70
2018-06-27T05:53:46.585Z,3.97
2018-06-27T05:56:22.069Z,3.93
2018-06-27T05:58:57.670Z,3.87
2018-06-27T06:01:33.403Z,4.23
2018-06-27T06:04:09.033Z,4.00
2018-06-27T06:06:44.404Z,4.17
2018-06-27T06:09:20.007Z,4.20
2018-06-27T06:11:55.284Z,3.90
2018-06-27T06:14:30.887Z,4.40
2018-06-27T06:17:06.737Z,4.13
2018-06-27T06:19:42.119Z,4.23
2018-06-27T06:22:17.902Z,4.27
2018-06-27T06:24:53.504Z,5.43
2018-06-27T06:27:29.803Z,5.17
2018-06-27T06:30:06.663Z,4.10
2018-06-27T06:32:43.912Z,4.43
2018-06-27T06:35:20.773Z,4.90
2018-06-27T06:37:57.752Z,4.40
2018-06-27T06:40:33.204Z,4.70
2018-06-27T06:43:08.598Z,5.10
2018-06-27T06:45:44.000Z,4.33
2018-06-27T06:48:20.680Z,3.93
2018-06-27T06:50:56.862Z,3.83
2018-06-27T06:53:32.332Z,3.40
2018-06-27T06:56:08.339Z,3.17
2018-06-27T06:58:44.529Z,3.67
2018-06-27T07:01:21.430Z,4.17
2018-06-27T07:03:57.992Z,3.70
2018-06-27T07:06:35.142Z,3.37
2018-06-27T07:09:13.210Z,3.30
2018-06-27T07:11:50.008Z,3.10
2018-06-27T07:14:25.568Z,2.17
2018-06-27T07:17:02.376Z,2.67
2018-06-27T07:19:38.931Z,2.10
2018-06-27T07:22:15.552Z,1.50
2018-06-27T07:24:53.302Z,1.77
2018-06-27T07:27:29.624Z,1.70
2018-06-27T07:30:07.278Z,2.50
2018-06-27T07:32:43.177Z,1.60
2018-06-27T07:35:18.790Z,1.63
2018-06-27T07:37:55.469Z,1.40
2018-06-27T07:40:31.587Z,1.30
2018-06-27T07:43:07.754Z,1.40
2018-06-27T07:45:43.254Z,1.17
2018-06-27T07:48:20.238Z,1.10
2018-06-27T07:50:56.281Z,1.00
2018-06-27T07:53:32.013Z,1.10
2018-06-27T07:56:07.949Z,1.00
2018-06-27T07:58:43.982Z,1.10
2018-06-27T08:01:20.540Z,1.07
2018-06-27T08:03:56.267Z,1.00
2018-06-27T08:06:37.596Z,0.90
2018-06-27T08:09:14.702Z,1.00
2018-06-27T08:11:51.700Z,0.73
2018-06-27T08:14:28.838Z,1.00
2018-06-27T08:17:05.568Z,1.17
2018-06-27T08:19:41.078Z,0.90
2018-06-27T08:22:18.392Z,1.27
2018-06-27T08:24:54.193Z,1.30
2018-06-27T08:27:31.464Z,1.00
2018-06-27T08:30:08.471Z,1.03
2018-06-27T08:32:45.070Z,1.30
2018-06-27T08:35:21.097Z,1.00
2018-06-27T08:37:57.292Z,1.47
2018-06-27T08:40:33.998Z,1.30
2018-06-27T08:43:10.709Z,1.00
2018-06-27T08:45:46.192Z,1.00
2018-06-27T08:48:22.293Z,1.20
2018-06-27T08:50:59.151Z,1.50
2018-06-27T08:53:36.718Z,1.40
2018-06-27T08:56:12.720Z,1.20
2018-06-27T08:58:47.939Z,1.20
2018-06-27T09:01:25.016Z,1.30
2018-06-27T09:04:01.458Z,1.03
2018-06-27T09:06:36.995Z,1.47
2018-06-27T09:09:13.422Z,1.40
2018-06-27T09:11:48.885Z,0.90
2018-06-27T09:14:25.246Z,0.90
2018-06-27T09:17:01.834Z,1.03
2018-06-27T09:19:37.685Z,1.30
2018-06-27T09:22:14.405Z,1.20
2018-06-27T09:24:49.783Z,1.20
2018-06-27T09:27:26.362Z,1.40
2018-06-27T09:30:02.184Z,4.43
2018-06-27T09:32:38.765Z,1.50
2018-06-27T09:35:14.231Z,1.50
2018-06-27T09:37:50.776Z,1.20
2018-06-27T09:40:28.017Z,2.05
2018-06-27T09:43:04.149Z,2.05
2018-06-27T09:45:40.561Z,1.32
2018-06-27T09:48:17.051Z,1.00
2018-06-27T09:50:53.685Z,1.15
2018-06-27T09:53:30.059Z,1.20
2018-06-27T09:56:06.178Z,1.07
2018-06-27T09:58:41.802Z,0.90
2018-06-27T10:01:17.897Z,1.12
2018-06-27T10:03:54.185Z,1.02
2018-06-27T10:06:30.331Z,0.90
2018-06-27T10:09:08.335Z,1.40
2018-06-27T10:11:43.766Z,1.10
2018-06-27T10:14:19.734Z,1.07
2018-06-27T10:16:56.001Z,1.72
2018-06-27T10:19:38.956Z,1.07
2018-06-27T10:22:15.409Z,1.00
2018-06-27T10:24:50.862Z,1.20
2018-06-27T10:27:28.136Z,0.90
2018-06-27T10:30:04.765Z,1.35
2018-06-27T10:32:40.924Z,1.10
2018-06-27T10:35:16.790Z,1.30
2018-06-27T10:37:52.758Z,1.70
2018-06-27T10:40:28.966Z,2.00
2018-06-27T10:43:05.566Z,1.17
2018-06-27T10:45:41.968Z,1.22
2018-06-27T10:48:17.796Z,1.20
2018-06-27T10:50:54.326Z,1.22
2018-06-27T10:53:31.522Z,1.72
2018-06-27T10:56:07.448Z,2.00
2018-06-27T10:58:43.056Z,1.10
2018-06-27T11:01:19.191Z,1.20
2018-06-27T11:03:55.152Z,1.30
2018-06-27T11:06:32.288Z,1.17
2018-06-27T11:09:09.720Z,1.17
2018-06-27T11:11:45.348Z,1.92
2018-06-27T11:18:21.806Z,2.15
2018-06-27T11:20:58.282Z,1.90
2018-06-27T11:23:36.012Z,1.30
2018-06-27T11:26:13.083Z,1.30
2018-06-27T11:28:49.600Z,1.10
2018-06-27T11:31:26.308Z,1.37
2018-06-27T11:34:02.041Z,1.02
2018-06-27T11:36:41.630Z,1.02
2018-06-27T11:39:17.224Z,1.32
2018-06-27T11:41:52.892Z,1.10
2018-06-27T11:44:31.170Z,1.20
2018-06-27T11:47:08.223Z,1.33
2018-06-27T11:49:46.064Z,1.17
2018-06-27T11:52:21.731Z,1.30
2018-06-27T11:55:03.220Z,1.30
2018-06-27T11:57:39.968Z,1.10
2018-06-27T12:00:16.630Z,1.30
2018-06-27T12:02:53.104Z,1.30
2018-06-27T12:05:29.612Z,1.27
2018-06-27T12:08:05.234Z,1.10
2018-06-27T12:10:42.011Z,1.37
2018-06-27T12:13:17.746Z,1.20
2018-06-27T12:15:55.534Z,1.10
2018-06-27T12:18:34.196Z,1.07
2018-06-27T12:21:10.402Z,1.55
2018-06-27T12:23:48.365Z,1.90
2018-06-27T12:26:25.730Z,1.57
2018-06-27T12:29:01.226Z,1.60
2018-06-27T12:31:38.266Z,1.33
2018-06-27T12:34:18.424Z,1.30
2018-06-27T12:36:57.010Z,1.23
2018-06-27T12:39:34.444Z,1.37
2018-06-27T12:42:14.544Z,1.60
2018-06-27T12:44:51.084Z,1.57
2018-06-27T12:47:26.937Z,1.50
2018-06-27T12:50:06.089Z,1.50
2018-06-27T12:52:42.374Z,1.37
2018-06-27T12:55:19.102Z,1.50
2018-06-27T12:57:58.077Z,1.70
2018-06-27T13:00:37.048Z,1.57
2018-06-27T13:03:12.805Z,1.50
2018-06-27T13:05:49.407Z,1.70
2018-06-27T13:08:25.353Z,1.57
2018-06-27T13:11:01.377Z,1.87
2018-06-27T13:13:36.944Z,1.90
2018-06-27T13:16:13.149Z,2.33
2018-06-27T13:18:50.067Z,1.77
2018-06-27T13:21:27.745Z,1.90
2018-06-27T13:24:03.517Z,1.70
2018-06-27T13:26:40.552Z,1.57
2018-06-27T13:29:16.921Z,1.60
2018-06-27T13:31:53.295Z,1.63
2018-06-27T13:34:29.025Z,1.87
2018-06-27T13:37:05.421Z,1.70
2018-06-27T13:39:42.213Z,1.30
2018-06-27T13:42:27.023Z,1.70
2018-06-27T13:45:03.479Z,1.73
2018-06-27T13:47:41.918Z,2.00
2018-06-27T13:50:17.813Z,1.40
2018-06-27T13:52:54.401Z,1.30
2018-06-27T13:55:31.367Z,1.80
2018-06-27T13:58:08.173Z,1.67
2018-06-27T14:00:44.514Z,1.60
2018-06-27T14:03:20.183Z,3.03
2018-06-27T14:05:56.003Z,1.83
2018-06-27T14:08:33.034Z,1.60
2018-06-27T14:11:13.097Z,1.30
2018-06-27T14:13:49.639Z,1.27
2018-06-27T14:16:25.181Z,1.70
2018-06-27T14:19:01.761Z,1.70
2018-06-27T14:21:38.305Z,2.10
2018-06-27T14:24:14.240Z,1.70
2018-06-27T14:26:51.129Z,1.50
2018-06-27T14:29:27.038Z,1.40
2018-06-27T14:32:02.810Z,1.47
2018-06-27T14:34:38.665Z,1.40
2018-06-27T14:37:14.323Z,1.60
2018-06-27T14:39:49.981Z,1.60
2018-06-27T14:42:27.306Z,1.77
2018-06-27T14:45:03.468Z,1.77
2018-06-27T14:47:40.349Z,1.37
2018-06-27T14:50:16.411Z,1.20
2018-06-27T14:52:52.237Z,1.33
2018-06-27T14:55:29.187Z,1.30
2018-06-27T14:58:05.808Z,1.70
2018-06-27T15:00:42.747Z,1.60
2018-06-27T15:03:20.054Z,1.53
2018-06-27T15:05:56.879Z,1.43
2018-06-27T15:08:36.042Z,1.27
2018-06-27T15:11:12.614Z,1.40
2018-06-27T15:13:50.650Z,1.50
2018-06-27T15:16:26.338Z,1.30
2018-06-27T15:19:02.741Z,1.67
2018-06-27T15:21:38.397Z,1.90
2018-06-27T15:24:15.092Z,2.03
2018-06-27T15:27:02.311Z,1.90
2018-06-27T15:32:24.021Z,1.90
2018-06-27T15:38:34.113Z,1.60
2018-06-27T15:41:14.409Z,1.50
2018-06-27T15:43:53.596Z,1.00
2018-06-27T15:46:30.850Z,1.40
2018-06-27T15:49:10.371Z,1.13
2018-06-27T15:51:47.053Z,1.23
2018-06-27T15:54:22.706Z,1.40
2018-06-27T15:56:58.684Z,1.20
2018-06-27T15:59:34.939Z,1.10
2018-06-27T16:02:11.281Z,0.97
2018-06-27T16:04:46.736Z,1.00
2018-06-27T16:07:22.948Z,1.20
2018-06-27T16:09:59.556Z,1.00
2018-06-27T16:12:36.197Z,1.00
2018-06-27T16:15:11.999Z,1.30
2018-06-27T16:17:48.056Z,1.00
2018-06-27T16:20:25.316Z,6.70
2018-06-27T16:23:00.875Z,1.27
2018-06-27T16:25:37.530Z,1.15
2018-06-27T16:28:18.100Z,1.30
2018-06-27T16:30:54.062Z,1.30
2018-06-27T16:33:30.078Z,1.10
2018-06-27T16:36:06.259Z,1.30
2018-06-27T16:38:45.504Z,1.10
2018-06-27T16:41:22.587Z,1.30
2018-06-27T16:43:58.429Z,1.47
2018-06-27T16:46:34.151Z,1.30
2018-06-27T16:49:10.713Z,1.00
2018-06-27T16:51:48.962Z,1.47
2018-06-27T16:54:25.574Z,1.30
2018-06-27T16:57:02.067Z,1.63
2018-06-27T16:59:38.240Z,1.20
2018-06-27T17:02:14.221Z,1.33
2018-06-27T17:04:50.832Z,1.63
2018-06-27T17:07:27.018Z,1.83
2018-06-27T17:10:03.854Z,1.80
2018-06-27T17:12:40.569Z,1.67
2018-06-27T17:15:18.244Z,1.60
2018-06-27T17:17:55.814Z,1.40
2018-06-27T17:20:33.100Z,1.53
2018-06-27T17:23:10.485Z,1.70
2018-06-27T17:25:46.780Z,2.20
2018-06-27T17:28:22.491Z,1.70
2018-06-27T17:30:58.123Z,1.57
2018-06-27T17:33:33.807Z,1.70
2018-06-27T17:36:10.067Z,1.90
2018-06-27T17:38:49.131Z,1.83
2018-06-27T17:41:25.947Z,1.63
2018-06-27T17:44:01.732Z,1.73
2018-06-27T17:46:38.687Z,1.53
2018-06-27T17:49:16.048Z,1.40
2018-06-27T17:51:54.908Z,1.03
2018-06-27T17:54:31.549Z,1.43
2018-06-27T17:57:08.055Z,1.40
2018-06-27T17:59:43.677Z,1.57
2018-06-27T18:02:20.218Z,1.70
2018-06-27T18:04:56.193Z,1.50
2018-06-27T18:07:32.400Z,1.20
2018-06-27T18:10:10.176Z,1.90
2018-06-27T18:12:45.892Z,1.60
2018-06-27T18:15:22.876Z,1.90
2018-06-27T18:18:08.651Z,3.00
2018-06-27T18:20:45.170Z,2.03
2018-06-27T18:23:22.864Z,1.97
2018-06-27T18:26:00.840Z,1.87
2018-06-27T18:28:37.206Z,2.23
2018-06-27T18:31:14.403Z,1.90
2018-06-27T18:33:50.749Z,1.80
2018-06-27T18:36:26.956Z,2.10
2018-06-27T18:39:02.895Z,2.20
2018-06-27T18:41:38.416Z,2.03
2018-06-27T18:44:14.362Z,2.63
2018-06-27T18:46:50.822Z,1.90
2018-06-27T18:49:27.309Z,2.53
2018-06-27T18:52:05.230Z,1.90
2018-06-27T18:54:40.881Z,2.00
2018-06-27T18:57:58.361Z,2.23
2018-06-27T19:00:34.420Z,1.70
2018-06-27T19:03:11.609Z,1.80
2018-06-27T19:05:49.048Z,2.13
2018-06-27T19:08:26.734Z,2.50
2018-06-27T19:11:03.306Z,2.40
2018-06-27T19:13:39.027Z,1.83
2018-06-27T19:16:16.198Z,2.47
2018-06-27T19:18:51.868Z,1.90
2018-06-27T19:21:30.067Z,2.33
2018-06-27T19:24:08.174Z,2.73
2018-06-27T19:26:45.835Z,3.50
2018-06-27T19:29:22.731Z,2.60
2018-06-27T19:31:59.403Z,2.20
2018-06-27T19:34:35.721Z,2.53
2018-06-27T19:37:12.929Z,2.33
2018-06-27T19:39:49.485Z,1.93
2018-06-27T19:42:25.711Z,1.80
2018-06-27T19:45:01.579Z,1.70
2018-06-27T19:47:36.993Z,2.10
2018-06-27T19:50:13.900Z,2.40
2018-06-27T19:52:49.779Z,2.67
2018-06-27T19:55:26.759Z,3.50
2018-06-27T19:58:03.923Z,3.30
2018-06-27T20:00:40.449Z,2.47
2018-06-27T20:03:17.947Z,2.43
2018-06-27T20:05:53.847Z,2.63
2018-06-27T20:08:30.331Z,2.40
2018-06-27T20:11:06.658Z,2.80
2018-06-27T20:13:43.509Z,2.60
2018-06-27T20:16:19.446Z,2.57
2018-06-27T20:18:55.518Z,2.47
2018-06-27T20:21:32.604Z,2.43
2018-06-27T20:24:09.090Z,3.23
2018-06-27T20:26:44.750Z,2.90
2018-06-27T20:29:20.666Z,3.03
2018-06-27T20:31:57.074Z,3.33
2018-06-27T20:34:33.372Z,3.23
2018-06-27T20:37:10.045Z,4.07
2018-06-27T20:39:46.507Z,3.63
2018-06-27T20:42:22.445Z,3.40
2018-06-27T20:44:58.360Z,3.27
2018-06-27T20:47:34.339Z,3.07
2018-06-27T20:50:10.724Z,2.17
2018-06-27T20:52:46.489Z,2.50
2018-06-27T20:55:22.924Z,2.20
2018-06-27T20:57:58.991Z,2.20
2018-06-27T21:00:35.721Z,2.00
2018-06-27T21:03:12.058Z,2.50
2018-06-27T21:05:48.414Z,3.00
2018-06-27T21:08:24.319Z,3.20
2018-06-27T21:11:00.436Z,3.13
2018-06-27T21:13:36.653Z,3.40
2018-06-27T21:16:12.663Z,4.60
2018-06-27T21:18:49.360Z,4.43
2018-06-27T21:21:26.227Z,4.30
2018-06-27T21:24:03.002Z,4.37
2018-06-27T21:26:39.332Z,3.63
2018-06-27T21:29:15.293Z,4.80
2018-06-27T21:31:51.017Z,3.90
2018-06-27T21:34:27.256Z,3.87
2018-06-27T21:37:03.827Z,4.00
2018-06-27T21:39:39.441Z,4.50
2018-06-27T21:42:16.959Z,4.20
2018-06-27T21:44:54.087Z,4.13
2018-06-27T21:47:29.923Z,3.77
2018-06-27T21:50:06.757Z,4.63
2018-06-27T21:52:42.535Z,2.97
2018-06-27T21:55:20.641Z,3.20
2018-06-27T21:57:56.981Z,3.50
2018-06-27T22:00:33.891Z,3.93
2018-06-27T22:03:11.566Z,5.07
2018-06-27T22:05:48.207Z,5.17
2018-06-27T22:08:24.327Z,5.30
2018-06-27T22:11:02.258Z,4.50
2018-06-27T22:13:38.120Z,9.40
2018-06-27T22:16:15.663Z,4.40
2018-06-27T22:18:51.337Z,3.90
2018-06-27T22:21:27.803Z,3.13
2018-06-27T22:24:03.847Z,3.60
2018-06-27T22:26:39.639Z,3.27
2018-06-27T22:29:16.396Z,4.40
2018-06-27T22:31:53.483Z,7.33
2018-06-27T22:34:29.507Z,3.40
2018-06-27T22:37:05.227Z,4.43
2018-06-27T22:39:41.340Z,2.63
2018-06-27T22:42:17.804Z,2.57
2018-06-27T22:44:54.941Z,2.97
2018-06-27T22:47:30.480Z,2.53
2018-06-27T22:50:06.801Z,5.10
2018-06-27T22:52:42.556Z,6.90
2018-06-27T22:55:19.846Z,3.70
2018-06-27T22:57:56.768Z,4.43
2018-06-27T23:00:32.236Z,3.17
2018-06-27T23:03:07.892Z,3.60
2018-06-27T23:05:43.830Z,5.20
2018-06-27T23:08:20.686Z,5.47
2018-06-27T23:10:57.454Z,4.60
2018-06-27T23:13:34.259Z,5.37
2018-06-27T23:16:10.672Z,5.30
2018-06-27T23:18:47.312Z,5.80
2018-06-27T23:21:23.535Z,3.93
2018-06-27T23:23:59.980Z,2.93
2018-06-27T23:26:36.776Z,3.50
2018-06-27T23:29:14.278Z,4.37
2018-06-27T23:31:51.159Z,3.80
2018-06-27T23:34:27.082Z,2.93
2018-06-27T23:37:03.470Z,2.90
2018-06-27T23:39:39.972Z,3.63
2018-06-27T23:42:15.850Z,3.40
2018-06-27T23:44:52.228Z,4.50
2018-06-27T23:47:27.941Z,4.23
2018-06-27T23:50:05.362Z,3.80
2018-06-27T23:52:41.824Z,3.07
2018-06-27T23:55:17.499Z,3.20
2018-06-27T23:57:53.804Z,2.97
